createdAt,value
2018-05-01T00:00:02.903Z,995.14
2018-05-01T00:00:29.077Z,995.14
2018-05-01T00:00:55.214Z,995.13
2018-05-01T00:01:21.346Z,995.14
2018-05-01T00:01:47.524Z,995.46
2018-05-01T00:02:13.663Z,995.2
2018-05-01T00:02:39.800Z,995.54
2018-05-01T00:03:05.930Z,995.21
2018-05-01T00:03:32.095Z,995.24
2018-05-01T00:03:58.234Z,995.17
2018-05-01T00:04:24.416Z,995.2
2018-05-01T00:04:50.550Z,995.2
2018-05-01T00:05:16.707Z,995.1
2018-05-01T00:05:42.844Z,995.25
2018-05-01T00:06:08.981Z,995.24
2018-05-01T00:06:35.117Z,995.14
2018-05-01T00:07:01.259Z,995.24
2018-05-01T00:07:27.392Z,995.15
2018-05-01T00:07:53.518Z,995.15
2018-05-01T00:08:19.684Z,995.2
2018-05-01T00:08:45.821Z,995.12
2018-05-01T00:09:11.960Z,995.27
2018-05-01T00:09:38.120Z,995.29
2018-05-01T00:10:04.256Z,995.08
2018-05-01T00:10:30.410Z,995.29
2018-05-01T00:10:56.551Z,995.24
2018-05-01T00:11:22.703Z,995.15
2018-05-01T00:11:48.834Z,994.82
2018-05-01T00:12:14.976Z,995.08
2018-05-01T00:12:41.112Z,995.07
2018-05-01T00:13:07.243Z,995.13
2018-05-01T00:13:33.379Z,995.11
2018-05-01T00:13:59.520Z,995.14
2018-05-01T00:14:25.728Z,995.1
2018-05-01T00:14:51.789Z,995.2
2018-05-01T00:15:17.955Z,995.26
2018-05-01T00:15:44.086Z,995.21
2018-05-01T00:16:10.229Z,995.12
2018-05-01T00:16:36.366Z,995.32
2018-05-01T00:17:02.497Z,995.14
2018-05-01T00:17:28.636Z,995.24
2018-05-01T00:17:54.772Z,995.27
2018-05-01T00:18:20.907Z,995.16
2018-05-01T00:18:47.045Z,995.16
2018-05-01T00:19:13.207Z,995.18
2018-05-01T00:19:39.350Z,995.26
2018-05-01T00:20:05.481Z,995.12
2018-05-01T00:20:31.612Z,995.17
2018-05-01T00:20:57.755Z,995.17
2018-05-01T00:21:23.888Z,995.14
2018-05-01T00:21:50.023Z,995.23
2018-05-01T00:22:16.176Z,995.19
2018-05-01T00:22:42.317Z,995.13
2018-05-01T00:23:08.449Z,995.26
2018-05-01T00:23:34.597Z,995.14
2018-05-01T00:24:00.738Z,995.19
2018-05-01T00:24:26.870Z,995.22
2018-05-01T00:24:53.007Z,995.22
2018-05-01T00:25:19.179Z,995.29
2018-05-01T00:25:45.332Z,995.32
2018-05-01T00:26:11.523Z,995.28
2018-05-01T00:26:37.667Z,995.25
2018-05-01T00:27:03.804Z,995.18
2018-05-01T00:27:29.948Z,995.17
2018-05-01T00:27:56.089Z,995.23
2018-05-01T00:28:22.248Z,995.46
2018-05-01T00:28:48.389Z,995.32
2018-05-01T00:29:14.576Z,995.18
2018-05-01T00:29:40.735Z,995.2
2018-05-01T00:30:06.893Z,995.16
2018-05-01T00:30:33.059Z,995.15
2018-05-01T00:30:59.212Z,995.16
2018-05-01T00:31:25.374Z,995.29
2018-05-01T00:31:51.531Z,995.18
2018-05-01T00:32:17.682Z,995.24
2018-05-01T00:32:43.809Z,995.24
2018-05-01T00:33:09.975Z,995.21
2018-05-01T00:33:36.110Z,995.2
2018-05-01T00:34:02.245Z,995.33
2018-05-01T00:34:28.383Z,995.25
2018-05-01T00:34:54.525Z,995.28
2018-05-01T00:35:20.668Z,995.23
2018-05-01T00:35:46.797Z,995.2
2018-05-01T00:36:12.939Z,995.21
2018-05-01T00:36:39.074Z,995.43
2018-05-01T00:37:05.214Z,995.32
2018-05-01T00:37:31.365Z,995.15
2018-05-01T00:37:57.530Z,995.18
2018-05-01T00:38:23.670Z,995.33
2018-05-01T00:38:49.805Z,995.34
2018-05-01T00:39:15.948Z,995.32
2018-05-01T00:39:42.078Z,995.15
2018-05-01T00:40:08.209Z,995.06
2018-05-01T00:40:34.352Z,995.25
2018-05-01T00:41:00.512Z,995.36
2018-05-01T00:41:26.646Z,995.37
2018-05-01T00:41:52.785Z,995.54
2018-05-01T00:42:18.922Z,995.26
2018-05-01T00:42:45.082Z,995.25
2018-05-01T00:43:11.241Z,995.31
2018-05-01T00:43:37.378Z,995.23
2018-05-01T00:44:03.515Z,995.29
2018-05-01T00:44:29.651Z,995.24
2018-05-01T00:44:55.819Z,995.38
2018-05-01T00:45:21.961Z,995.22
2018-05-01T00:45:48.104Z,995.35
2018-05-01T00:46:14.237Z,995.29
2018-05-01T00:46:40.378Z,995.26
2018-05-01T00:47:06.525Z,995.43
2018-05-01T00:47:32.687Z,995.18
2018-05-01T00:47:58.824Z,995.34
2018-05-01T00:48:24.981Z,995.44
2018-05-01T00:48:51.118Z,995.4
2018-05-01T00:49:17.273Z,995.59
2018-05-01T00:49:43.413Z,995.33
2018-05-01T00:50:09.548Z,995.31
2018-05-01T00:50:35.711Z,995.9
2018-05-01T00:51:01.818Z,995.71
2018-05-01T00:51:34.276Z,995.47
2018-05-01T00:52:00.411Z,995.34
2018-05-01T00:52:26.545Z,995.29
2018-05-01T00:52:52.685Z,995.48
2018-05-01T00:53:18.824Z,995.43
2018-05-01T00:53:44.954Z,995.64
2018-05-01T00:54:11.095Z,995.21
2018-05-01T00:54:37.241Z,995.21
2018-05-01T00:55:03.372Z,995.38
2018-05-01T00:55:29.509Z,995.18
2018-05-01T00:55:55.652Z,995.37
2018-05-01T00:56:21.816Z,995.35
2018-05-01T00:56:47.950Z,995.42
2018-05-01T00:57:14.118Z,995.53
2018-05-01T00:57:40.249Z,995.51
2018-05-01T00:58:06.387Z,995.59
2018-05-01T00:58:32.519Z,995.28
2018-05-01T00:58:58.663Z,995.4
2018-05-01T00:59:24.820Z,995.39
2018-05-01T00:59:50.962Z,995.32
2018-05-01T01:00:17.093Z,995.39
2018-05-01T01:00:43.235Z,995.33
2018-05-01T01:01:09.371Z,995.14
2018-05-01T01:01:35.497Z,995.52
2018-05-01T01:02:01.663Z,995.79
2018-05-01T01:02:27.804Z,995.36
2018-05-01T01:02:53.935Z,995.43
2018-05-01T01:03:20.068Z,995.49
2018-05-01T01:03:46.269Z,995.67
2018-05-01T01:04:12.349Z,995.62
2018-05-01T01:04:38.504Z,995.64
2018-05-01T01:05:04.642Z,995.5
2018-05-01T01:05:30.799Z,995.55
2018-05-01T01:05:56.939Z,995.51
2018-05-01T01:06:23.074Z,995.31
2018-05-01T01:06:49.208Z,995.48
2018-05-01T01:07:15.365Z,995.23
2018-05-01T01:07:41.532Z,995.45
2018-05-01T01:08:07.691Z,995.53
2018-05-01T01:08:33.849Z,995.51
2018-05-01T01:08:59.989Z,995.53
2018-05-01T01:09:26.132Z,995.38
2018-05-01T01:09:52.270Z,995.52
2018-05-01T01:10:18.410Z,995.47
2018-05-01T01:10:44.541Z,995.45
2018-05-01T01:11:10.682Z,995.65
2018-05-01T01:11:36.816Z,995.51
2018-05-01T01:12:02.987Z,995.6
2018-05-01T01:12:29.121Z,995.5
2018-05-01T01:12:55.264Z,995.52
2018-05-01T01:13:21.424Z,995.37
2018-05-01T01:13:47.562Z,995.58
2018-05-01T01:14:13.703Z,995.63
2018-05-01T01:14:39.840Z,995.51
2018-05-01T01:15:05.968Z,995.51
2018-05-01T01:15:32.100Z,995.45
2018-05-01T01:15:58.263Z,995.58
2018-05-01T01:16:24.398Z,995.58
2018-05-01T01:16:50.534Z,995.56
2018-05-01T01:17:16.693Z,995.63
2018-05-01T01:17:42.830Z,995.54
2018-05-01T01:18:08.966Z,995.47
2018-05-01T01:18:35.100Z,995.55
2018-05-01T01:19:01.303Z,995.77
2018-05-01T01:19:27.421Z,995.51
2018-05-01T01:19:53.561Z,995.6
2018-05-01T01:20:19.744Z,995.48
2018-05-01T01:20:45.906Z,995.52
2018-05-01T01:21:12.066Z,995.88
2018-05-01T01:21:38.206Z,995.51
2018-05-01T01:22:04.342Z,995.53
2018-05-01T01:22:30.470Z,995.45
2018-05-01T01:22:56.633Z,995.74
2018-05-01T01:23:22.768Z,995.59
2018-05-01T01:23:48.938Z,995.75
2018-05-01T01:24:15.090Z,995.64
2018-05-01T01:24:41.262Z,995.68
2018-05-01T01:25:07.420Z,995.59
2018-05-01T01:25:33.565Z,995.56
2018-05-01T01:25:59.694Z,995.62
2018-05-01T01:26:25.867Z,995.51
2018-05-01T01:26:51.997Z,995.6
2018-05-01T01:27:18.165Z,995.66
2018-05-01T01:27:44.309Z,995.61
2018-05-01T01:28:10.471Z,995.62
2018-05-01T01:28:36.613Z,995.56
2018-05-01T01:29:02.748Z,995.63
2018-05-01T01:29:28.877Z,995.58
2018-05-01T01:29:55.014Z,995.59
2018-05-01T01:30:21.148Z,995.7
2018-05-01T01:30:47.299Z,995.49
2018-05-01T01:31:13.437Z,995.86
2018-05-01T01:31:39.574Z,995.57
2018-05-01T01:32:05.734Z,995.56
2018-05-01T01:32:31.868Z,995.6
2018-05-01T01:32:58.011Z,995.6
2018-05-01T01:33:24.160Z,995.83
2018-05-01T01:33:50.294Z,995.62
2018-05-01T01:34:16.429Z,995.74
2018-05-01T01:34:42.567Z,995.77
2018-05-01T01:35:08.713Z,995.66
2018-05-01T01:35:34.875Z,995.77
2018-05-01T01:36:01.005Z,995.82
2018-05-01T01:36:27.143Z,995.82
2018-05-01T01:36:53.310Z,995.64
2018-05-01T01:37:19.447Z,995.7
2018-05-01T01:37:45.585Z,995.77
2018-05-01T01:38:11.717Z,995.74
2018-05-01T01:38:37.879Z,995.36
2018-05-01T01:39:04.025Z,995.79
2018-05-01T01:39:30.209Z,995.7
2018-05-01T01:39:56.353Z,995.77
2018-05-01T01:40:22.480Z,995.64
2018-05-01T01:40:48.620Z,995.76
2018-05-01T01:41:14.751Z,995.94
2018-05-01T01:41:40.889Z,995.75
2018-05-01T01:42:07.024Z,995.81
2018-05-01T01:42:33.161Z,995.76
2018-05-01T01:42:59.319Z,995.76
2018-05-01T01:43:25.453Z,995.88
2018-05-01T01:43:51.593Z,995.65
2018-05-01T01:44:17.732Z,995.7
2018-05-01T01:44:43.865Z,995.79
2018-05-01T01:45:10.006Z,995.83
2018-05-01T01:45:36.141Z,995.86
2018-05-01T01:46:02.280Z,995.82
2018-05-01T01:46:28.441Z,995.74
2018-05-01T01:46:54.572Z,995.82
2018-05-01T01:47:20.711Z,995.89
2018-05-01T01:47:46.895Z,996.02
2018-05-01T01:48:13.028Z,995.8
2018-05-01T01:48:39.165Z,995.87
2018-05-01T01:49:05.305Z,995.93
2018-05-01T01:49:31.442Z,995.86
2018-05-01T01:49:57.576Z,995.75
2018-05-01T01:50:23.720Z,995.69
2018-05-01T01:50:49.850Z,995.77
2018-05-01T01:51:15.999Z,995.75
2018-05-01T01:51:42.136Z,995.97
2018-05-01T01:52:08.262Z,996.03
2018-05-01T01:52:34.391Z,996.09
2018-05-01T01:53:00.550Z,995.74
2018-05-01T01:53:26.693Z,995.76
2018-05-01T01:53:52.831Z,995.78
2018-05-01T01:54:18.993Z,996.16
2018-05-01T01:54:45.133Z,995.88
2018-05-01T01:55:11.263Z,995.85
2018-05-01T01:55:37.407Z,995.75
2018-05-01T01:56:03.569Z,995.81
2018-05-01T01:56:29.719Z,995.97
2018-05-01T01:56:55.852Z,996.23
2018-05-01T01:57:22.011Z,995.97
2018-05-01T01:57:48.185Z,995.92
2018-05-01T01:58:14.321Z,995.78
2018-05-01T01:58:40.456Z,995.99
2018-05-01T01:59:06.590Z,995.99
2018-05-01T01:59:32.721Z,996.06
2018-05-01T01:59:58.862Z,995.93
2018-05-01T02:00:24.995Z,995.92
2018-05-01T02:00:51.149Z,995.92
2018-05-01T02:01:17.295Z,995.94
2018-05-01T02:01:43.433Z,995.8
2018-05-01T02:02:09.564Z,995.83
2018-05-01T02:02:35.696Z,995.82
2018-05-01T02:03:01.842Z,996.17
2018-05-01T02:03:27.975Z,996.04
2018-05-01T02:03:54.107Z,995.84
2018-05-01T02:04:20.271Z,995.96
2018-05-01T02:04:46.407Z,996.28
2018-05-01T02:05:12.538Z,996.21
2018-05-01T02:05:38.701Z,995.78
2018-05-01T02:06:04.844Z,996.01
2018-05-01T02:06:30.986Z,995.75
2018-05-01T02:06:57.144Z,996.09
2018-05-01T02:07:23.306Z,995.98
2018-05-01T02:07:49.454Z,995.95
2018-05-01T02:08:15.584Z,996.03
2018-05-01T02:08:41.714Z,996
2018-05-01T02:09:07.860Z,995.89
2018-05-01T02:09:33.995Z,995.87
2018-05-01T02:10:00.126Z,996
2018-05-01T02:10:26.258Z,995.99
2018-05-01T02:10:52.428Z,996.04
2018-05-01T02:11:18.561Z,996.12
2018-05-01T02:11:44.726Z,995.96
2018-05-01T02:12:10.861Z,996.1
2018-05-01T02:12:36.997Z,995.97
2018-05-01T02:13:03.139Z,995.93
2018-05-01T02:13:29.263Z,995.98
2018-05-01T02:13:55.406Z,995.95
2018-05-01T02:14:21.560Z,995.91
2018-05-01T02:14:47.695Z,996.19
2018-05-01T02:15:13.828Z,996
2018-05-01T02:15:39.964Z,995.84
2018-05-01T02:16:06.102Z,996.03
2018-05-01T02:16:32.230Z,995.95
2018-05-01T02:16:58.397Z,996.13
2018-05-01T02:17:24.531Z,995.94
2018-05-01T02:17:50.664Z,996.06
2018-05-01T02:18:16.822Z,996.02
2018-05-01T02:18:42.958Z,995.93
2018-05-01T02:19:09.108Z,996
2018-05-01T02:19:35.238Z,995.8
2018-05-01T02:20:01.372Z,995.8
2018-05-01T02:20:27.543Z,996.17
2018-05-01T02:20:53.677Z,996.16
2018-05-01T02:21:19.842Z,995.97
2018-05-01T02:21:45.980Z,996.13
2018-05-01T02:22:12.143Z,996.14
2018-05-01T02:22:38.280Z,996.04
2018-05-01T02:23:04.413Z,995.96
2018-05-01T02:23:30.545Z,996.05
2018-05-01T02:23:56.681Z,996.01
2018-05-01T02:24:22.827Z,995.98
2018-05-01T02:24:49.012Z,996.05
2018-05-01T02:25:15.167Z,996.03
2018-05-01T02:25:41.298Z,996.44
2018-05-01T02:26:07.437Z,996.17
2018-05-01T02:26:33.600Z,996.01
2018-05-01T02:26:59.736Z,996.07
2018-05-01T02:27:25.887Z,996.12
2018-05-01T02:27:52.028Z,996.17
2018-05-01T02:28:18.163Z,995.93
2018-05-01T02:28:44.334Z,996.06
2018-05-01T02:29:10.471Z,996.1
2018-05-01T02:29:36.609Z,996.14
2018-05-01T02:30:02.745Z,996.21
2018-05-01T02:30:28.880Z,996.05
2018-05-01T02:30:55.064Z,996.21
2018-05-01T02:31:21.234Z,996.03
2018-05-01T02:31:47.419Z,996.24
2018-05-01T02:32:13.555Z,996.09
2018-05-01T02:32:39.766Z,996.06
2018-05-01T02:33:05.959Z,996.19
2018-05-01T02:33:32.117Z,996.09
2018-05-01T02:33:58.312Z,996.12
2018-05-01T02:34:24.444Z,996.12
2018-05-01T02:34:50.610Z,996.09
2018-05-01T02:35:16.751Z,996.1
2018-05-01T02:35:42.914Z,996
2018-05-01T02:36:09.057Z,996.06
2018-05-01T02:36:35.279Z,996.03
2018-05-01T02:37:01.421Z,996.23
2018-05-01T02:37:27.545Z,996.16
2018-05-01T02:37:53.735Z,996.1
2018-05-01T02:38:19.870Z,996.01
2018-05-01T02:38:46.005Z,996.19
2018-05-01T02:39:12.146Z,996.19
2018-05-01T02:39:38.277Z,996.17
2018-05-01T02:40:04.500Z,995.98
2018-05-01T02:40:30.659Z,996.18
2018-05-01T02:40:56.787Z,996.22
2018-05-01T02:41:22.941Z,996.18
2018-05-01T02:41:49.124Z,996.17
2018-05-01T02:42:15.303Z,996.16
2018-05-01T02:42:41.502Z,996.12
2018-05-01T02:43:07.640Z,996.26
2018-05-01T02:43:33.878Z,996.01
2018-05-01T02:43:59.994Z,996.08
2018-05-01T02:44:26.153Z,996.21
2018-05-01T02:44:52.317Z,996
2018-05-01T02:45:18.453Z,996.08
2018-05-01T02:45:44.608Z,996.11
2018-05-01T02:46:10.790Z,996.08
2018-05-01T02:46:36.973Z,996.2
2018-05-01T02:47:03.138Z,996.24
2018-05-01T02:47:29.296Z,996.14
2018-05-01T02:47:55.439Z,996.18
2018-05-01T02:48:21.564Z,996.17
2018-05-01T02:48:47.724Z,996.2
2018-05-01T02:49:13.937Z,996.22
2018-05-01T02:49:40.066Z,996.07
2018-05-01T02:50:06.231Z,996.35
2018-05-01T02:50:32.367Z,996.16
2018-05-01T02:50:58.539Z,996.29
2018-05-01T02:51:24.673Z,996.12
2018-05-01T02:51:50.812Z,996.16
2018-05-01T02:52:16.996Z,996.18
2018-05-01T02:52:43.130Z,996.1
2018-05-01T02:53:09.318Z,996.35
2018-05-01T02:53:35.496Z,996.33
2018-05-01T02:54:01.653Z,996.19
2018-05-01T02:54:27.793Z,996.38
2018-05-01T02:54:53.985Z,996.17
2018-05-01T02:55:20.141Z,996.16
2018-05-01T02:55:46.307Z,996.12
2018-05-01T02:56:12.482Z,996.22
2018-05-01T02:56:38.614Z,996.32
2018-05-01T02:57:04.773Z,996.22
2018-05-01T02:57:30.967Z,996.32
2018-05-01T02:57:57.155Z,996.29
2018-05-01T02:58:23.282Z,996.19
2018-05-01T02:58:49.467Z,996.03
2018-05-01T02:59:15.627Z,996.34
2018-05-01T02:59:41.758Z,996.3
2018-05-01T03:00:07.916Z,996.26
2018-05-01T03:00:34.058Z,996.24
2018-05-01T03:01:00.204Z,996.3
2018-05-01T03:01:26.343Z,996.44
2018-05-01T03:01:52.471Z,996.41
2018-05-01T03:02:18.609Z,996.36
2018-05-01T03:02:44.772Z,996.3
2018-05-01T03:03:10.928Z,996.44
2018-05-01T03:03:37.065Z,996.28
2018-05-01T03:04:03.223Z,996.27
2018-05-01T03:04:29.357Z,996.38
2018-05-01T03:04:55.517Z,996.2
2018-05-01T03:05:21.656Z,996.19
2018-05-01T03:05:47.813Z,996.24
2018-05-01T03:06:13.995Z,996.19
2018-05-01T03:06:40.131Z,996.18
2018-05-01T03:07:06.288Z,996.4
2018-05-01T03:07:32.425Z,996.22
2018-05-01T03:07:58.589Z,996.26
2018-05-01T03:08:24.745Z,996.32
2018-05-01T03:08:50.904Z,996.11
2018-05-01T03:09:17.088Z,996.31
2018-05-01T03:09:43.326Z,996.28
2018-05-01T03:10:09.408Z,996.32
2018-05-01T03:10:35.566Z,996.57
2018-05-01T03:11:01.719Z,996.68
2018-05-01T03:11:27.861Z,996.42
2018-05-01T03:11:54.028Z,996.25
2018-05-01T03:12:20.185Z,996.27
2018-05-01T03:12:46.318Z,996.37
2018-05-01T03:13:12.513Z,996.31
2018-05-01T03:13:38.711Z,996.31
2018-05-01T03:14:04.902Z,996.36
2018-05-01T03:14:31.058Z,996.32
2018-05-01T03:14:57.198Z,996.27
2018-05-01T03:15:23.327Z,996.37
2018-05-01T03:15:49.491Z,996.46
2018-05-01T03:16:15.649Z,996.48
2018-05-01T03:16:41.784Z,996.41
2018-05-01T03:17:07.913Z,996.38
2018-05-01T03:17:34.055Z,996.48
2018-05-01T03:18:00.186Z,996.36
2018-05-01T03:18:26.328Z,996.5
2018-05-01T03:18:52.458Z,996.34
2018-05-01T03:19:18.593Z,996.25
2018-05-01T03:19:44.728Z,996.44
2018-05-01T03:20:10.894Z,996.57
2018-05-01T03:20:37.028Z,996.63
2018-05-01T03:21:03.165Z,996.41
2018-05-01T03:21:29.302Z,996.77
2018-05-01T03:21:55.430Z,996.55
2018-05-01T03:22:21.585Z,996.59
2018-05-01T03:22:47.819Z,996.46
2018-05-01T03:23:13.876Z,996.55
2018-05-01T03:23:40.016Z,996.6
2018-05-01T03:24:06.174Z,996.6
2018-05-01T03:24:32.313Z,996.55
2018-05-01T03:24:58.464Z,996.62
2018-05-01T03:25:24.654Z,996.53
2018-05-01T03:25:50.735Z,996.35
2018-05-01T03:26:16.908Z,996.49
2018-05-01T03:26:43.050Z,996.48
2018-05-01T03:27:09.183Z,996.46
2018-05-01T03:27:35.318Z,996.43
2018-05-01T03:28:01.486Z,996.47
2018-05-01T03:28:27.624Z,996.64
2018-05-01T03:28:53.782Z,996.66
2018-05-01T03:29:19.919Z,996.51
2018-05-01T03:29:46.049Z,996.6
2018-05-01T03:30:12.209Z,996.5
2018-05-01T03:30:38.377Z,996.44
2018-05-01T03:31:04.575Z,996.85
2018-05-01T03:31:30.726Z,996.49
2018-05-01T03:31:56.913Z,996.52
2018-05-01T03:32:23.076Z,996.25
2018-05-01T03:32:49.207Z,996.56
2018-05-01T03:33:15.371Z,996.64
2018-05-01T03:33:41.504Z,996.61
2018-05-01T03:34:07.648Z,996.59
2018-05-01T03:34:33.786Z,996.59
2018-05-01T03:34:59.918Z,996.5
2018-05-01T03:35:26.059Z,996.41
2018-05-01T03:35:52.199Z,996.5
2018-05-01T03:36:18.357Z,996.54
2018-05-01T03:36:44.498Z,996.59
2018-05-01T03:37:10.632Z,996.41
2018-05-01T03:37:36.770Z,996.74
2018-05-01T03:38:02.903Z,996.6
2018-05-01T03:38:29.033Z,996.65
2018-05-01T03:38:55.216Z,996.45
2018-05-01T03:39:21.327Z,996.58
2018-05-01T03:39:47.461Z,996.48
2018-05-01T03:40:13.646Z,996.64
2018-05-01T03:40:39.810Z,996.54
2018-05-01T03:41:05.948Z,996.7
2018-05-01T03:41:32.090Z,996.68
2018-05-01T03:41:58.215Z,996.66
2018-05-01T03:42:24.359Z,996.73
2018-05-01T03:42:50.497Z,996.85
2018-05-01T03:43:16.635Z,996.81
2018-05-01T03:43:42.766Z,996.73
2018-05-01T03:44:08.908Z,996.79
2018-05-01T03:44:35.035Z,996.71
2018-05-01T03:45:01.175Z,996.61
2018-05-01T03:45:27.307Z,996.87
2018-05-01T03:45:53.445Z,996.71
2018-05-01T03:46:19.574Z,996.72
2018-05-01T03:46:45.715Z,996.77
2018-05-01T03:47:11.871Z,996.7
2018-05-01T03:47:38.025Z,996.73
2018-05-01T03:48:04.169Z,996.63
2018-05-01T03:48:30.297Z,996.62
2018-05-01T03:48:56.433Z,996.86
2018-05-01T03:49:22.569Z,996.76
2018-05-01T03:49:48.737Z,996.69
2018-05-01T03:50:14.870Z,996.68
2018-05-01T03:50:41.013Z,996.7
2018-05-01T03:51:07.171Z,996.78
2018-05-01T03:51:33.303Z,996.79
2018-05-01T03:51:59.444Z,996.77
2018-05-01T03:52:25.603Z,996.69
2018-05-01T03:52:51.737Z,996.71
2018-05-01T03:53:17.870Z,996.96
2018-05-01T03:53:44.004Z,996.71
2018-05-01T03:54:10.147Z,996.76
2018-05-01T03:54:36.276Z,996.8
2018-05-01T03:55:02.436Z,996.78
2018-05-01T03:55:28.563Z,996.8
2018-05-01T03:55:54.812Z,996.76
2018-05-01T03:56:20.872Z,996.82
2018-05-01T03:56:47.038Z,996.85
2018-05-01T03:57:13.224Z,996.92
2018-05-01T03:57:39.300Z,996.8
2018-05-01T03:58:05.449Z,996.98
2018-05-01T03:58:31.585Z,996.7
2018-05-01T03:58:57.716Z,997.62
2018-05-01T03:59:23.854Z,996.75
2018-05-01T03:59:49.991Z,996.88
2018-05-01T04:00:16.128Z,996.9
2018-05-01T04:00:42.319Z,996.8
2018-05-01T04:01:08.460Z,996.85
2018-05-01T04:01:34.590Z,996.91
2018-05-01T04:02:00.727Z,997.08
2018-05-01T04:02:26.867Z,996.87
2018-05-01T04:02:53.008Z,996.96
2018-05-01T04:03:19.138Z,996.98
2018-05-01T04:03:45.304Z,996.85
2018-05-01T04:04:11.469Z,996.92
2018-05-01T04:04:37.607Z,997
2018-05-01T04:05:03.743Z,996.88
2018-05-01T04:05:29.877Z,996.93
2018-05-01T04:05:56.014Z,996.8
2018-05-01T04:06:22.157Z,997.11
2018-05-01T04:06:48.287Z,996.88
2018-05-01T04:07:14.424Z,997.05
2018-05-01T04:07:40.564Z,997.02
2018-05-01T04:08:06.698Z,997.07
2018-05-01T04:08:32.842Z,996.93
2018-05-01T04:08:58.982Z,996.94
2018-05-01T04:09:25.115Z,997.2
2018-05-01T04:09:51.252Z,997.03
2018-05-01T04:10:17.387Z,997.01
2018-05-01T04:10:43.525Z,997.16
2018-05-01T04:11:09.659Z,997.03
2018-05-01T04:11:35.795Z,996.96
2018-05-01T04:12:01.934Z,997.04
2018-05-01T04:12:28.075Z,997.06
2018-05-01T04:12:54.212Z,997.16
2018-05-01T04:13:20.363Z,997.05
2018-05-01T04:13:46.525Z,997.18
2018-05-01T04:14:12.684Z,997.05
2018-05-01T04:14:38.839Z,997.28
2018-05-01T04:15:04.977Z,997.36
2018-05-01T04:15:31.117Z,997.12
2018-05-01T04:15:57.248Z,997.03
2018-05-01T04:16:23.381Z,997.14
2018-05-01T04:16:49.520Z,996.98
2018-05-01T04:17:15.654Z,997.26
2018-05-01T04:17:41.793Z,997.16
2018-05-01T04:18:07.981Z,997.24
2018-05-01T04:18:34.109Z,997.16
2018-05-01T04:19:00.282Z,997.06
2018-05-01T04:19:26.415Z,997.37
2018-05-01T04:19:52.561Z,997.27
2018-05-01T04:20:18.695Z,997.3
2018-05-01T04:20:44.833Z,996.98
2018-05-01T04:21:10.995Z,997.3
2018-05-01T04:21:37.134Z,997.23
2018-05-01T04:22:03.276Z,997.14
2018-05-01T04:22:29.407Z,997.22
2018-05-01T04:22:55.538Z,997.24
2018-05-01T04:23:21.679Z,997.15
2018-05-01T04:23:47.815Z,997.25
2018-05-01T04:24:13.948Z,997.32
2018-05-01T04:24:40.088Z,997.29
2018-05-01T04:25:06.224Z,997.23
2018-05-01T04:25:32.359Z,997.34
2018-05-01T04:25:58.552Z,997.37
2018-05-01T04:26:24.686Z,997.54
2018-05-01T04:26:50.830Z,997.29
2018-05-01T04:27:16.963Z,997.27
2018-05-01T04:27:43.102Z,997.46
2018-05-01T04:28:09.240Z,997.32
2018-05-01T04:28:35.391Z,997.34
2018-05-01T04:29:01.573Z,997.43
2018-05-01T04:29:27.744Z,997.27
2018-05-01T04:29:53.885Z,997.35
2018-05-01T04:30:20.017Z,997.32
2018-05-01T04:30:46.153Z,997.41
2018-05-01T04:31:12.300Z,997.41
2018-05-01T04:31:38.435Z,997.17
2018-05-01T04:32:04.572Z,997.32
2018-05-01T04:32:30.703Z,997.61
2018-05-01T04:32:56.845Z,997.37
2018-05-01T04:33:22.974Z,997.32
2018-05-01T04:33:49.113Z,997.36
2018-05-01T04:34:15.244Z,997.47
2018-05-01T04:34:41.385Z,997.34
2018-05-01T04:35:07.528Z,997.58
2018-05-01T04:35:33.689Z,997.48
2018-05-01T04:35:59.823Z,997.49
2018-05-01T04:36:25.963Z,997.55
2018-05-01T04:36:52.107Z,997.33
2018-05-01T04:37:18.260Z,997.41
2018-05-01T04:37:44.394Z,997.47
2018-05-01T04:38:10.530Z,997.47
2018-05-01T04:38:36.665Z,997.54
2018-05-01T04:39:02.805Z,997.45
2018-05-01T04:39:28.963Z,997.73
2018-05-01T04:39:55.923Z,997.84
2018-05-01T04:40:22.068Z,997.62
2018-05-01T04:40:48.249Z,997.76
2018-05-01T04:41:14.388Z,997.66
2018-05-01T04:41:40.556Z,997.44
2018-05-01T04:42:06.717Z,997.47
2018-05-01T04:42:32.851Z,997.59
2018-05-01T04:42:58.993Z,997.89
2018-05-01T04:43:25.126Z,997.5
2018-05-01T04:43:51.261Z,997.88
2018-05-01T04:44:17.404Z,997.89
2018-05-01T04:44:43.568Z,997.68
2018-05-01T04:45:09.697Z,997.69
2018-05-01T04:45:35.877Z,997.59
2018-05-01T04:46:02.010Z,997.62
2018-05-01T04:46:28.148Z,997.58
2018-05-01T04:46:54.278Z,997.57
2018-05-01T04:47:20.442Z,997.61
2018-05-01T04:47:46.574Z,997.76
2018-05-01T04:48:12.713Z,997.64
2018-05-01T04:48:38.844Z,997.51
2018-05-01T04:49:04.991Z,997.69
2018-05-01T04:49:31.146Z,997.86
2018-05-01T04:49:57.282Z,997.63
2018-05-01T04:50:23.443Z,997.71
2018-05-01T04:50:49.573Z,997.67
2018-05-01T04:51:15.708Z,997.75
2018-05-01T04:51:41.897Z,997.76
2018-05-01T04:52:08.011Z,997.72
2018-05-01T04:52:34.142Z,997.79
2018-05-01T04:53:00.285Z,997.68
2018-05-01T04:53:26.421Z,997.77
2018-05-01T04:53:52.578Z,997.75
2018-05-01T04:54:18.739Z,997.91
2018-05-01T04:54:44.873Z,997.85
2018-05-01T04:55:11.006Z,997.7
2018-05-01T04:55:37.143Z,997.79
2018-05-01T04:56:03.307Z,997.73
2018-05-01T04:56:29.440Z,997.88
2018-05-01T04:56:55.585Z,997.86
2018-05-01T04:57:21.720Z,997.73
2018-05-01T04:57:47.856Z,997.77
2018-05-01T04:58:13.999Z,997.86
2018-05-01T04:58:40.151Z,997.66
2018-05-01T04:59:06.320Z,997.89
2018-05-01T04:59:32.481Z,997.79
2018-05-01T04:59:58.612Z,997.94
2018-05-01T05:00:24.751Z,997.73
2018-05-01T05:00:50.886Z,997.91
2018-05-01T05:01:17.070Z,997.97
2018-05-01T05:01:43.232Z,997.96
2018-05-01T05:02:09.393Z,997.91
2018-05-01T05:02:35.531Z,998.17
2018-05-01T05:03:01.661Z,998.66
2018-05-01T05:03:27.828Z,997.94
2018-05-01T05:03:53.960Z,998.15
2018-05-01T05:04:20.102Z,998.01
2018-05-01T05:04:46.236Z,997.97
2018-05-01T05:05:12.377Z,998.12
2018-05-01T05:05:38.514Z,997.96
2018-05-01T05:06:04.646Z,998
2018-05-01T05:06:30.788Z,998.01
2018-05-01T05:06:56.925Z,998
2018-05-01T05:07:23.062Z,998.04
2018-05-01T05:07:49.202Z,998.13
2018-05-01T05:08:15.337Z,998.41
2018-05-01T05:08:41.475Z,998.34
2018-05-01T05:09:07.612Z,998.26
2018-05-01T05:09:33.812Z,998.09
2018-05-01T05:09:59.900Z,998.23
2018-05-01T05:10:26.040Z,998.27
2018-05-01T05:10:52.204Z,998.2
2018-05-01T05:11:18.341Z,998.16
2018-05-01T05:11:44.501Z,997.84
2018-05-01T05:12:10.643Z,998.41
2018-05-01T05:12:36.772Z,998.16
2018-05-01T05:13:02.916Z,998.34
2018-05-01T05:13:29.048Z,998.13
2018-05-01T05:13:55.189Z,998.3
2018-05-01T05:14:21.338Z,998.46
2018-05-01T05:14:47.483Z,998.39
2018-05-01T05:15:13.626Z,998.35
2018-05-01T05:15:39.814Z,998.32
2018-05-01T05:16:05.903Z,998.43
2018-05-01T05:16:32.036Z,998.48
2018-05-01T05:16:58.170Z,998.13
2018-05-01T05:17:24.320Z,998.21
2018-05-01T05:17:50.457Z,998.18
2018-05-01T05:18:16.597Z,998.34
2018-05-01T05:18:42.725Z,998.22
2018-05-01T05:19:08.888Z,998.38
2018-05-01T05:19:35.026Z,998.32
2018-05-01T05:20:01.163Z,998.3
2018-05-01T05:20:27.302Z,998.19
2018-05-01T05:20:53.433Z,998.31
2018-05-01T05:21:19.622Z,998.43
2018-05-01T05:21:45.763Z,998.43
2018-05-01T05:22:11.910Z,998.43
2018-05-01T05:22:38.072Z,998.46
2018-05-01T05:23:04.202Z,998.39
2018-05-01T05:23:30.342Z,998.47
2018-05-01T05:23:56.484Z,998.36
2018-05-01T05:24:22.648Z,998.4
2018-05-01T05:24:48.794Z,998.43
2018-05-01T05:25:14.928Z,998.61
2018-05-01T05:25:41.061Z,998.47
2018-05-01T05:26:07.225Z,998.47
2018-05-01T05:26:33.375Z,998.57
2018-05-01T05:26:59.512Z,998.44
2018-05-01T05:27:25.682Z,998.38